Terminal Aerodrome Forecast
Issued by NWS

Home | Current Version | Previous Version | Text Only | Print | Product List | Glossary On
Versions: 1 2 3 4 5 6 7 8 9 10 11 12 13 14 15 16 17 18 19 20 21 22 23 24
000
FTUS44 KOUN 281733
TAFHBR
TAF
KHBR 281733Z 2818/2918 20012KT P6SM VCSH OVC100
     FM282000 20014KT P6SM BKN120
     FM290000 16007KT P6SM SCT120 BKN250
     FM291100 35006KT P6SM FEW120
     FM291500 01011KT P6SM SKC=

USA.gov is the U.S. government's official web portal to all federal, state and local government web resources and services.